Time;durP1;ratioP1;P1;durP2;ratioP2;P2;SDS_P1;SDS_P2;PMS_P1;PMS_P2;Temp;Humidity;BMP_temperature;BMP_pressure;BME280_temperature;BME280_humidity;BME280_pressure;Samples;Min_cycle;Max_cycle;Signal;HPM_P1;HPM_P2
2023/06/15 00:00:33;;;;;;;12.33;6.30;;;;;;;16.51;97.71;99696.78;5058952;28;20310;-57
2023/06/15 00:03:07;;;;;;;10.83;6.67;;;;;;;17.15;96.77;99756.88;5050969;28;20341;-56
2023/06/15 00:05:38;;;;;;;10.27;5.70;;;;;;;17.31;95.50;99761.38;5033113;28;20294;-55
2023/06/15 00:08:08;;;;;;;11.17;6.37;;;;;;;17.20;94.83;99749.56;5043228;28;20318;-54
2023/06/15 00:10:39;;;;;;;15.23;6.00;;;;;;;17.12;95.26;99757.00;5033111;28;20286;-56
2023/06/15 00:13:10;;;;;;;10.50;5.83;;;;;;;17.20;95.02;99741.66;5043103;28;20795;-57
2023/06/15 00:15:40;;;;;;;11.67;5.90;;;;;;;17.37;95.15;99755.75;5033104;28;20298;-57
2023/06/15 00:18:13;;;;;;;12.77;5.90;;;;;;;17.34;93.98;99750.63;5044061;28;20302;-57
2023/06/15 00:20:44;;;;;;;10.43;7.07;;;;;;;17.33;93.27;99743.66;5033100;28;20801;-57
2023/06/15 00:23:17;;;;;;;13.50;5.77;;;;;;;17.69;94.80;99749.59;5030267;28;20330;-57
2023/06/15 00:25:47;;;;;;;13.93;6.30;;;;;;;18.11;93.50;99753.50;5013553;28;20594;-56
2023/06/15 00:28:18;;;;;;;13.70;6.63;;;;;;;18.39;91.57;99749.31;5023445;28;20309;-54
2023/06/15 00:30:48;;;;;;;9.33;6.53;;;;;;;18.44;89.32;99756.97;5013095;28;20284;-57
2023/06/15 00:33:21;;;;;;;11.37;6.03;;;;;;;18.40;88.66;99737.81;5023964;28;20630;-57
2023/06/15 00:35:51;;;;;;;11.80;5.60;;;;;;;18.27;88.98;99707.69;5021653;28;20286;-56
2023/06/15 00:38:22;;;;;;;11.67;5.97;;;;;;;18.56;87.56;99742.22;5044214;28;20287;-57
2023/06/15 00:40:56;;;;;;;8.10;5.70;;;;;;;18.65;87.09;99741.69;5037239;28;20293;-55
2023/06/15 00:43:26;;;;;;;12.23;5.50;;;;;;;18.89;87.76;99729.66;5047999;28;21112;-56
2023/06/15 00:45:57;;;;;;;15.03;5.37;;;;;;;19.17;86.08;99743.94;5037600;28;20282;-55
2023/06/15 00:48:30;;;;;;;15.97;5.67;;;;;;;19.21;84.72;99734.84;5047971;28;20295;-56
2023/06/15 00:51:01;;;;;;;13.97;5.27;;;;;;;18.94;84.04;99738.19;5043328;28;20281;-55
2023/06/15 00:53:32;;;;;;;9.57;5.20;;;;;;;18.83;84.98;99735.34;5065145;28;20424;-55
2023/06/15 00:56:03;;;;;;;8.77;4.97;;;;;;;18.86;85.84;99732.50;5066972;28;20367;-57
2023/06/15 00:58:34;;;;;;;11.33;5.47;;;;;;;18.93;85.39;99744.44;5049803;28;20290;-56
2023/06/15 01:01:04;;;;;;;7.23;5.00;;;;;;;19.20;85.45;99738.44;5046982;28;20287;-57
2023/06/15 01:03:40;;;;;;;9.97;4.57;;;;;;;19.43;84.54;99707.91;5036050;28;20771;-57
2023/06/15 01:06:13;;;;;;;9.80;4.90;;;;;;;19.67;83.23;99737.38;5047435;28;21039;-57
2023/06/15 01:08:47;;;;;;;9.77;5.30;;;;;;;19.83;83.84;99737.25;5036826;28;20282;-58
2023/06/15 01:11:18;;;;;;;6.77;4.57;;;;;;;19.97;82.09;99723.13;5046337;28;20322;-56
2023/06/15 01:13:50;;;;;;;7.70;4.57;;;;;;;20.16;81.59;99713.00;5036716;28;20347;-56
2023/06/15 01:16:25;;;;;;;10.13;4.50;;;;;;;20.21;80.85;99721.50;5046415;28;21285;-56
2023/06/15 01:18:59;;;;;;;8.30;4.07;;;;;;;20.06;80.81;99717.22;5036865;28;20796;-57
2023/06/15 01:21:31;;;;;;;8.60;4.20;;;;;;;20.02;80.47;99705.13;5047461;28;21086;-57
2023/06/15 01:24:18;;;;;;;7.93;4.60;;;;;;;19.97;80.81;99708.06;4998074;28;20304;-55
2023/06/15 01:26:52;;;;;;;10.30;4.63;;;;;;;19.91;79.67;99686.38;4997745;28;20751;-55
2023/06/15 01:29:26;;;;;;;13.50;4.83;;;;;;;20.01;80.19;99703.41;5007554;28;20358;-57
2023/06/15 01:31:57;;;;;;;7.47;3.53;;;;;;;20.14;80.70;99699.00;4997673;28;20298;-57
2023/06/15 01:34:28;;;;;;;7.20;4.17;;;;;;;20.09;79.71;99693.13;5007364;28;20294;-56
2023/06/15 01:36:58;;;;;;;8.00;4.60;;;;;;;19.97;79.88;99686.00;5034306;28;20295;-56
2023/06/15 01:39:29;;;;;;;8.80;4.40;;;;;;;19.71;80.01;99693.78;5046923;28;20298;-57
2023/06/15 01:42:02;;;;;;;10.40;4.60;;;;;;;19.44;80.78;99690.19;5024531;28;20283;-56
2023/06/15 01:44:33;;;;;;;10.87;4.37;;;;;;;19.18;81.82;99692.66;5033474;28;20313;-57
2023/06/15 01:47:03;;;;;;;8.23;3.63;;;;;;;19.03;82.67;99677.72;5045946;28;20287;-56
2023/06/15 01:49:35;;;;;;;6.17;4.10;;;;;;;19.22;83.58;99675.66;5034902;28;20279;-55
2023/06/15 01:52:06;;;;;;;8.70;3.90;;;;;;;19.31;81.96;99667.09;5061373;28;20278;-56
2023/06/15 01:54:36;;;;;;;8.33;3.40;;;;;;;19.43;81.83;99670.81;5050634;27;20311;-55
2023/06/15 01:57:10;;;;;;;5.13;3.20;;;;;;;19.55;81.27;99653.28;5046297;28;20283;-55
2023/06/15 01:59:40;;;;;;;5.10;2.83;;;;;;;19.56;79.98;99649.69;5035720;28;20298;-59
2023/06/15 02:02:11;;;;;;;8.67;3.23;;;;;;;19.83;80.60;99650.59;5046003;28;20691;-57
2023/06/15 02:04:42;;;;;;;6.70;3.07;;;;;;;19.98;78.98;99655.88;5035452;28;20370;-57
2023/06/15 02:07:12;;;;;;;6.47;2.90;;;;;;;20.22;79.06;99654.25;5045404;28;20287;-56
2023/06/15 02:09:43;;;;;;;7.30;3.27;;;;;;;20.47;78.59;99642.03;5034995;28;20340;-58
2023/06/15 02:12:15;;;;;;;7.37;3.03;;;;;;;20.36;76.78;99650.69;5031997;28;20275;-57
2023/06/15 02:14:49;;;;;;;7.10;3.10;;;;;;;20.18;76.84;99644.78;5015528;28;20321;-56
2023/06/15 02:17:20;;;;;;;6.93;3.30;;;;;;;20.02;78.10;99652.06;5025556;28;20361;-56
2023/06/15 02:19:50;;;;;;;7.30;2.97;;;;;;;20.00;77.72;99632.75;5016715;28;20280;-56
2023/06/15 02:22:21;;;;;;;8.40;3.10;;;;;;;19.85;78.35;99641.72;5038732;28;20880;-55
2023/06/15 02:24:52;;;;;;;8.10;3.60;;;;;;;19.73;78.11;99652.13;5016487;28;20284;-57
2023/06/15 02:27:24;;;;;;;6.07;3.13;;;;;;;19.53;79.17;99655.19;5026259;28;20287;-55
2023/06/15 02:29:55;;;;;;;4.90;3.23;;;;;;;19.46;80.77;99648.56;5015779;28;20284;-56
2023/06/15 02:32:34;;;;;;;5.43;3.17;;;;;;;18.83;80.20;99550.06;5026241;28;20670;-57
2023/06/15 02:35:06;;;;;;;5.53;2.63;;;;;;;19.18;80.41;99619.34;5015575;28;20306;-55
2023/06/15 02:37:37;;;;;;;6.13;2.90;;;;;;;19.22;80.25;99620.03;5016913;28;20283;-55
2023/06/15 02:40:10;;;;;;;6.57;3.10;;;;;;;19.31;80.80;99645.91;5036807;28;20299;-55
2023/06/15 02:42:42;;;;;;;4.83;3.03;;;;;;;19.55;81.57;99626.78;5022586;28;20286;-56
2023/06/15 02:45:13;;;;;;;7.60;3.30;;;;;;;19.73;80.15;99625.63;5030358;28;20306;-59
2023/06/15 02:47:45;;;;;;;7.03;3.07;;;;;;;20.00;80.11;99624.81;5029274;28;20279;-56
2023/06/15 02:50:17;;;;;;;6.37;2.87;;;;;;;20.42;79.59;99644.13;5044442;28;20370;-56
2023/06/15 02:52:48;;;;;;;5.23;2.70;;;;;;;20.86;78.04;99632.31;5034339;28;20634;-57
2023/06/15 02:55:32;;;;;;;9.70;3.17;;;;;;;20.97;75.85;99632.44;5031231;28;20298;-57
2023/06/15 02:58:05;;;;;;;6.63;3.17;;;;;;;20.74;75.59;99627.84;5029948;28;21216;-57
2023/06/15 03:00:36;;;;;;;9.33;3.53;;;;;;;20.53;74.98;99623.00;5030031;28;20298;-57
2023/06/15 03:03:07;;;;;;;7.53;2.83;;;;;;;20.37;75.60;99622.38;5040512;28;20375;-59
2023/06/15 03:05:39;;;;;;;5.63;3.10;;;;;;;20.35;77.32;99611.00;5029488;28;20319;-58
2023/06/15 03:08:11;;;;;;;9.80;3.20;;;;;;;20.37;76.34;99614.41;5039933;28;20665;-59
2023/06/15 03:10:42;;;;;;;6.00;2.97;;;;;;;20.51;76.12;99622.25;5029557;28;20668;-58
2023/06/15 03:13:15;;;;;;;7.77;3.40;;;;;;;20.75;75.38;99597.69;5039887;28;20352;-58
2023/06/15 03:15:45;;;;;;;9.60;3.20;;;;;;;21.05;74.53;99611.47;5030230;28;20287;-58
2023/06/15 03:18:16;;;;;;;5.43;2.93;;;;;;;21.19;75.36;99591.06;5040522;28;20790;-56
2023/06/15 03:20:52;;;;;;;3.70;2.73;;;;;;;21.35;72.62;99607.63;5029596;28;20305;-58
2023/06/15 03:23:23;;;;;;;5.00;2.80;;;;;;;21.26;72.94;99598.47;5039956;28;20286;-57
2023/06/15 03:25:54;;;;;;;6.50;2.87;;;;;;;21.40;74.17;99588.72;5028808;28;20275;-57
2023/06/15 03:28:30;;;;;;;7.00;2.90;;;;;;;21.79;73.60;99578.78;5036886;28;20298;-58
2023/06/15 03:31:04;;;;;;;8.63;2.60;;;;;;;22.04;70.30;99581.34;5013588;28;20286;-58
2023/06/15 03:33:36;;;;;;;11.43;3.30;;;;;;;22.10;70.68;99588.00;5029682;28;20290;-59
2023/06/15 03:36:08;;;;;;;9.40;3.20;;;;;;;22.25;70.07;99586.88;5040271;28;20298;-56
2023/06/15 03:38:38;;;;;;;11.00;2.87;;;;;;;22.43;70.46;99589.94;5029343;28;20339;-56
2023/06/15 03:41:09;;;;;;;8.53;2.73;;;;;;;22.46;69.89;99579.06;5039860;28;20452;-57
2023/06/15 03:43:41;;;;;;;5.67;3.00;;;;;;;22.32;70.01;99588.09;5028709;28;20117;-57
2023/06/15 03:46:12;;;;;;;6.30;3.30;;;;;;;22.03;69.72;99584.09;5039376;28;20176;-58
2023/06/15 03:48:42;;;;;;;10.57;3.03;;;;;;;21.84;70.69;99577.50;5012769;28;20180;-57
2023/06/15 03:51:13;;;;;;;4.53;3.00;;;;;;;21.37;70.57;99528.63;5039511;28;20282;-60
2023/06/15 03:53:44;;;;;;;12.07;3.10;;;;;;;21.57;72.16;99568.88;5029027;28;20044;-58
2023/06/15 03:56:15;;;;;;;6.53;3.00;;;;;;;21.60;72.50;99563.34;5025842;28;20072;-57
2023/06/15 03:58:47;;;;;;;12.27;3.30;;;;;;;21.66;72.26;99565.53;5009671;28;20287;-58
2023/06/15 04:01:19;;;;;;;7.50;3.10;;;;;;;21.48;71.93;99552.63;5020367;28;20044;-58
2023/06/15 04:03:50;;;;;;;5.73;2.90;;;;;;;21.53;72.32;99550.50;5012485;28;20890;-57
2023/06/15 04:06:21;;;;;;;14.87;3.43;;;;;;;21.72;73.56;99551.81;5039496;28;20321;-56
2023/06/15 04:08:52;;;;;;;8.07;3.03;;;;;;;21.84;73.02;99534.94;5028721;28;20060;-59
2023/06/15 04:11:25;;;;;;;7.73;3.23;;;;;;;22.04;73.09;99551.19;5038914;28;20103;-58
2023/06/15 04:13:57;;;;;;;7.30;3.57;;;;;;;21.94;71.75;99527.97;5028174;28;20046;-58
2023/06/15 04:16:27;;;;;;;11.33;3.63;;;;;;;21.75;71.08;99519.66;5038623;28;20051;-57
2023/06/15 04:18:58;;;;;;;5.57;3.03;;;;;;;21.77;71.57;99541.69;5028715;28;21111;-59
2023/06/15 04:21:29;;;;;;;7.90;3.63;;;;;;;21.69;71.51;99536.06;5040315;28;20059;-59
2023/06/15 04:23:59;;;;;;;7.07;3.40;;;;;;;21.78;71.65;99519.44;5028398;28;20124;-58
2023/06/15 04:26:30;;;;;;;9.47;3.67;;;;;;;21.86;72.04;99530.34;5039472;28;20711;-57
2023/06/15 04:29:02;;;;;;;6.13;3.30;;;;;;;22.09;72.14;99533.06;5028581;28;20332;-57
2023/06/15 04:31:33;;;;;;;5.40;3.23;;;;;;;22.13;70.41;99545.19;5030122;28;20113;-57
2023/06/15 04:34:06;;;;;;;9.20;3.60;;;;;;;22.18;70.77;99535.03;5038831;28;20049;-57
2023/06/15 04:36:40;;;;;;;6.47;3.43;;;;;;;22.07;69.60;99530.56;5028678;28;20040;-57
2023/06/15 04:39:11;;;;;;;6.17;3.47;;;;;;;22.06;70.62;99533.31;5039526;28;20287;-57
2023/06/15 04:41:42;;;;;;;8.27;3.17;;;;;;;22.17;69.92;99538.69;5028575;28;20060;-55
2023/06/15 04:44:14;;;;;;;8.47;3.70;;;;;;;22.20;71.24;99551.78;5038743;28;20053;-58
2023/06/15 04:46:46;;;;;;;6.40;3.57;;;;;;;22.34;70.47;99540.94;5028566;28;20060;-57
2023/06/15 04:49:17;;;;;;;7.33;3.47;;;;;;;22.28;69.25;99522.75;5039040;28;20063;-58
2023/06/15 04:51:50;;;;;;;9.97;3.80;;;;;;;22.32;69.29;99528.72;5028136;28;20048;-57
2023/06/15 04:54:20;;;;;;;6.70;3.67;;;;;;;22.26;69.11;99527.34;5038955;28;20052;-59
2023/06/15 04:56:53;;;;;;;7.90;3.63;;;;;;;22.07;70.30;99479.16;5028345;28;20673;-58
2023/06/15 04:59:26;;;;;;;8.07;3.67;;;;;;;22.30;69.90;99510.19;5038402;28;20118;-58
2023/06/15 05:01:57;;;;;;;10.93;3.10;;;;;;;22.30;69.07;99515.50;5028202;28;20049;-57
2023/06/15 05:04:28;;;;;;;5.40;3.50;;;;;;;22.34;70.36;99506.34;5039021;28;20060;-59
2023/06/15 05:06:59;;;;;;;6.57;3.53;;;;;;;22.55;70.30;99500.31;5028023;28;20063;-58
2023/06/15 05:09:29;;;;;;;9.30;3.93;;;;;;;22.59;69.35;99499.09;5039615;28;20086;-58
2023/06/15 05:12:01;;;;;;;5.93;3.73;;;;;;;22.70;69.45;99496.44;5028429;28;20063;-56
2023/06/15 05:14:33;;;;;;;7.10;3.90;;;;;;;22.81;69.57;99488.44;5037272;28;20475;-58
2023/06/15 05:17:04;;;;;;;7.00;3.80;;;;;;;22.40;68.93;99451.78;5038735;28;20102;-58
2023/06/15 05:19:35;;;;;;;9.07;3.67;;;;;;;22.34;68.51;99482.38;5028419;28;20059;-58
2023/06/15 05:22:06;;;;;;;6.00;3.53;;;;;;;22.23;67.85;99482.34;5038092;28;20432;-57
2023/06/15 05:24:37;;;;;;;6.40;3.53;;;;;;;22.43;69.17;99485.28;5029569;28;20064;-59
2023/06/15 05:27:08;;;;;;;7.30;4.20;;;;;;;22.57;69.74;99447.78;5042775;28;20060;-57
2023/06/15 05:29:41;;;;;;;7.00;3.40;;;;;;;22.91;68.62;99487.69;5032180;28;20049;-60
2023/06/15 05:32:11;;;;;;;9.27;3.80;;;;;;;22.94;67.90;99471.47;5041912;28;20127;-57
2023/06/15 05:34:43;;;;;;;7.53;3.53;;;;;;;22.93;67.31;99465.28;5031875;28;20072;-59
2023/06/15 05:37:13;;;;;;;5.83;3.77;;;;;;;22.91;67.01;99466.38;5042070;28;20076;-57
2023/06/15 05:39:44;;;;;;;6.43;3.60;;;;;;;23.07;67.87;99476.72;5031505;28;20059;-58
2023/06/15 05:42:15;;;;;;;12.90;4.40;;;;;;;23.09;66.34;99470.28;5042840;28;20566;-57
2023/06/15 05:44:47;;;;;;;9.87;4.33;;;;;;;23.12;67.18;99459.38;5031710;28;20110;-57
2023/06/15 05:47:17;;;;;;;5.80;3.60;;;;;;;23.08;67.07;99473.91;5042117;28;20106;-59
2023/06/15 05:49:48;;;;;;;8.50;3.53;;;;;;;23.09;67.38;99464.94;5030439;28;21352;-57
2023/06/15 05:52:19;;;;;;;10.00;3.80;;;;;;;23.22;67.53;99460.31;5040971;28;20454;-58
2023/06/15 05:54:49;;;;;;;10.57;3.73;;;;;;;23.28;67.63;99439.47;5031367;28;20052;-58
2023/06/15 05:57:20;;;;;;;10.60;3.70;;;;;;;23.39;66.55;99461.59;5042107;28;20611;-55
2023/06/15 05:59:54;;;;;;;9.50;4.40;;;;;;;23.46;67.04;99451.25;5031132;28;21870;-58
2023/06/15 06:02:25;;;;;;;11.67;4.40;;;;;;;23.38;65.43;99443.06;5040602;28;20062;-59
2023/06/15 06:04:56;;;;;;;7.40;3.40;;;;;;;23.34;66.02;99453.13;5030769;28;20075;-58
2023/06/15 06:07:27;;;;;;;7.93;3.73;;;;;;;23.07;65.50;99402.94;5041705;28;20043;-57
2023/06/15 06:09:57;;;;;;;9.67;3.67;;;;;;;23.30;65.89;99437.50;5030545;28;20040;-58
2023/06/15 06:12:28;;;;;;;9.50;3.97;;;;;;;23.33;66.37;99435.44;5041251;28;20044;-59
2023/06/15 06:15:00;;;;;;;9.17;4.13;;;;;;;23.24;65.13;99431.72;5030557;28;20560;-56
2023/06/15 06:17:31;;;;;;;7.30;3.50;;;;;;;23.22;66.53;99433.66;5041062;28;20053;-58
2023/06/15 06:20:21;;;;;;;10.60;4.13;;;;;;;23.19;65.54;99436.59;5040556;28;20064;-57
2023/06/15 06:22:52;;;;;;;8.80;4.50;;;;;;;23.22;65.77;99432.81;5030139;28;20150;-58
2023/06/15 06:25:23;;;;;;;8.43;5.23;;;;;;;23.33;66.42;99431.91;5040492;28;20122;-58
2023/06/15 06:27:53;;;;;;;8.80;4.20;;;;;;;23.40;65.19;99446.44;5030244;28;20053;-58
2023/06/15 06:30:25;;;;;;;8.70;4.63;;;;;;;23.24;64.19;99442.38;5041491;28;20048;-58
2023/06/15 06:33:00;;;;;;;7.93;4.13;;;;;;;23.28;66.68;99439.47;5011767;28;20057;-57
2023/06/15 06:35:32;;;;;;;10.53;4.33;;;;;;;23.17;66.21;99451.84;5016300;28;20057;-57
2023/06/15 06:38:03;;;;;;;17.10;4.80;;;;;;;23.12;66.03;99462.03;5021891;28;20551;-58
2023/06/15 06:40:33;;;;;;;8.57;4.57;;;;;;;23.01;64.95;99462.03;5012264;28;20770;-59
2023/06/15 06:43:04;;;;;;;9.70;4.20;;;;;;;22.88;66.01;99463.97;5021516;28;20060;-57
2023/06/15 06:45:36;;;;;;;10.57;4.40;;;;;;;22.82;66.29;99452.84;5011557;28;20496;-57
2023/06/15 06:48:07;;;;;;;12.23;4.70;;;;;;;22.74;66.32;99439.31;5021119;28;20884;-57
2023/06/15 06:50:38;;;;;;;11.77;5.50;;;;;;;22.78;67.08;99462.03;5011208;28;20053;-57
2023/06/15 06:53:08;;;;;;;11.90;4.77;;;;;;;22.58;67.03;99417.53;5021166;28;20122;-57
2023/06/15 06:55:39;;;;;;;7.43;4.50;;;;;;;22.68;66.20;99454.91;5011102;28;20052;-57
2023/06/15 06:58:10;;;;;;;14.27;5.00;;;;;;;22.52;67.37;99460.63;5028868;28;20396;-57
2023/06/15 07:00:43;;;;;;;13.37;5.23;;;;;;;22.48;67.93;99469.81;5030149;28;20059;-58
2023/06/15 07:03:13;;;;;;;12.47;5.23;;;;;;;22.48;68.04;99469.81;5040913;28;20714;-58
2023/06/15 07:05:44;;;;;;;14.47;4.70;;;;;;;22.54;69.24;99463.97;5030057;28;20110;-59
2023/06/15 07:08:14;;;;;;;12.27;4.57;;;;;;;22.56;68.74;99464.72;5040400;28;20052;-58
2023/06/15 07:10:45;;;;;;;12.60;4.90;;;;;;;22.50;68.17;99473.19;5029454;28;20076;-58
2023/06/15 07:13:16;;;;;;;9.47;4.63;;;;;;;22.42;68.43;99475.63;5040099;28;20064;-58
2023/06/15 07:15:49;;;;;;;13.67;4.77;;;;;;;22.39;68.92;99476.72;5029891;28;20044;-57
2023/06/15 07:18:19;;;;;;;8.63;5.50;;;;;;;22.44;69.00;99486.97;5040344;28;20149;-58
2023/06/15 07:20:53;;;;;;;8.80;5.33;;;;;;;22.45;68.93;99480.69;5029918;28;20064;-58
2023/06/15 07:23:24;;;;;;;13.73;6.27;;;;;;;22.32;68.58;99476.34;5039674;28;20102;-58
2023/06/15 07:25:59;;;;;;;19.00;7.73;;;;;;;22.36;67.97;99508.88;5029808;28;20052;-58
2023/06/15 07:28:30;;;;;;;10.07;4.70;;;;;;;22.31;68.69;99506.56;5039889;28;20091;-57
2023/06/15 07:31:02;;;;;;;11.97;6.13;;;;;;;22.24;68.67;99489.38;5029029;28;20056;-57
2023/06/15 07:33:33;;;;;;;10.10;4.73;;;;;;;22.35;68.95;99501.84;5031107;28;20181;-58
2023/06/15 07:36:20;;;;;;;12.07;4.67;;;;;;;22.27;67.48;99497.13;5040055;28;20055;-58
2023/06/15 07:39:08;;;;;;;10.90;4.97;;;;;;;22.04;67.90;99484.69;5010560;28;20067;-58
2023/06/15 07:41:39;;;;;;;9.30;5.00;;;;;;;21.92;68.56;99495.31;5027266;28;20048;-57
2023/06/15 07:44:26;;;;;;;12.00;4.40;;;;;;;21.79;69.48;99491.91;5039775;28;20274;-58
2023/06/15 07:47:14;;;;;;;11.70;4.70;;;;;;;21.71;69.72;99486.28;5039164;28;20067;-59
2023/06/15 07:50:01;;;;;;;10.68;4.40;;;;;;;21.75;70.86;99503.72;5025919;28;20122;-59
2023/06/15 07:52:48;;;;;;;13.17;5.07;;;;;;;21.81;70.55;99503.25;5029318;28;20060;-58
2023/06/15 07:55:36;;;;;;;12.60;5.30;;;;;;;21.92;69.88;99511.28;5029167;28;20105;-57
2023/06/15 07:58:06;;;;;;;10.53;4.97;;;;;;;22.00;69.59;99517.84;5039169;28;20135;-57
2023/06/15 08:00:37;;;;;;;11.00;4.87;;;;;;;22.11;69.66;99515.19;5029095;28;20191;-58
2023/06/15 08:03:09;;;;;;;11.17;5.23;;;;;;;22.13;68.92;99524.75;5039968;28;20137;-59
2023/06/15 08:05:40;;;;;;;7.77;4.23;;;;;;;21.86;69.45;99527.69;5028605;28;20406;-58
2023/06/15 08:08:11;;;;;;;16.00;5.33;;;;;;;21.70;69.92;99532.47;5038986;28;20053;-60
2023/06/15 08:10:42;;;;;;;12.33;5.00;;;;;;;21.63;70.21;99526.75;5028213;28;20114;-58
2023/06/15 08:13:18;;;;;;;9.80;4.43;;;;;;;21.72;70.50;99530.53;5038103;28;20414;-59
2023/06/15 08:15:49;;;;;;;14.87;4.80;;;;;;;21.64;70.03;99527.59;5028250;28;20045;-58
2023/06/15 08:18:21;;;;;;;13.83;4.57;;;;;;;21.74;69.78;99534.78;5039594;28;20167;-60
2023/06/15 08:20:52;;;;;;;9.33;5.07;;;;;;;21.68;69.89;99523.75;5027834;28;20093;-59
2023/06/15 08:23:23;;;;;;;7.60;4.40;;;;;;;21.60;69.83;99520.81;5038584;28;20344;-59
2023/06/15 08:25:53;;;;;;;11.77;4.73;;;;;;;21.51;69.70;99523.16;5028537;28;20624;-58
2023/06/15 08:28:30;;;;;;;15.67;5.00;;;;;;;20.87;69.66;99450.81;5038697;28;20376;-60
2023/06/15 08:31:20;;;;;;;10.73;5.10;;;;;;;21.24;70.23;99535.78;5038425;28;20317;-60
2023/06/15 08:33:53;;;;;;;13.83;5.10;;;;;;;21.17;70.50;99534.53;5028413;28;20283;-58
2023/06/15 08:36:24;;;;;;;11.37;4.63;;;;;;;21.24;70.42;99551.72;5039208;28;20290;-59
2023/06/15 08:38:55;;;;;;;8.33;4.47;;;;;;;21.23;70.43;99542.06;5028250;28;20286;-61
2023/06/15 08:41:28;;;;;;;10.07;5.10;;;;;;;21.15;70.26;99536.47;5038758;28;20294;-58
2023/06/15 08:43:59;;;;;;;12.40;5.90;;;;;;;21.15;70.01;99541.78;5028506;28;20362;-59
2023/06/15 08:46:29;;;;;;;8.67;5.27;;;;;;;21.06;69.88;99533.50;5039105;28;20670;-59
2023/06/15 08:49:03;;;;;;;8.47;4.83;;;;;;;21.10;69.56;99540.28;5028283;28;20792;-60
2023/06/15 08:51:36;;;;;;;7.87;4.77;;;;;;;21.13;69.73;99538.38;5028783;28;20297;-59
2023/06/15 08:54:08;;;;;;;10.37;4.80;;;;;;;21.06;70.04;99522.03;5039077;28;20634;-59
2023/06/15 08:56:39;;;;;;;8.37;4.83;;;;;;;21.13;70.28;99538.38;5027675;28;20354;-58
2023/06/15 08:59:09;;;;;;;8.33;4.57;;;;;;;21.17;70.01;99550.47;5039221;28;20294;-61
2023/06/15 09:01:43;;;;;;;9.23;4.80;;;;;;;21.05;69.58;99547.75;5031736;28;20279;-61
2023/06/15 09:04:18;;;;;;;14.07;5.17;;;;;;;21.01;69.62;99556.88;5042268;28;20366;-59
2023/06/15 09:06:52;;;;;;;10.40;5.00;;;;;;;20.97;70.54;99544.78;5031850;28;20286;-57
2023/06/15 09:09:22;;;;;;;15.67;8.47;;;;;;;21.00;70.80;99559.66;5042907;28;20344;-58
2023/06/15 09:11:55;;;;;;;10.80;5.37;;;;;;;20.82;71.24;99545.88;5032066;28;21470;-57
2023/06/15 09:14:39;;;;;;;15.23;5.43;;;;;;;20.95;71.51;99564.44;5042371;28;20311;-57
2023/06/15 09:17:31;;;;;;;14.80;5.40;;;;;;;20.82;71.51;99567.13;5042104;28;20348;-58
2023/06/15 09:20:06;;;;;;;11.20;4.70;;;;;;;20.61;71.66;99572.94;5032545;28;20283;-57
2023/06/15 09:22:42;;;;;;;10.47;5.37;;;;;;;20.56;72.39;99576.88;5031599;28;20291;-56
2023/06/15 09:25:19;;;;;;;14.47;5.13;;;;;;;20.47;73.08;99573.03;5042347;28;20293;-58
2023/06/15 09:27:57;;;;;;;17.73;5.27;;;;;;;20.33;73.53;99567.81;5031301;28;20283;-58
2023/06/15 09:30:35;;;;;;;13.00;5.43;;;;;;;20.14;74.15;99566.38;5042700;28;20283;-58
2023/06/15 09:33:13;;;;;;;13.30;5.77;;;;;;;20.09;74.32;99584.41;5031698;28;20282;-58
2023/06/15 09:36:02;;;;;;;9.25;4.88;;;;;;;20.03;75.00;99590.97;5031214;28;20274;-59
2023/06/15 09:38:36;;;;;;;10.35;4.90;;;;;;;19.52;75.03;99534.22;5032826;28;20395;-58
2023/06/15 09:41:08;;;;;;;9.90;5.60;;;;;;;19.79;75.27;99598.75;5041536;28;20064;-58
2023/06/15 09:44:03;;;;;;;12.80;5.87;;;;;;;19.47;76.08;99586.66;5031451;28;20978;-58
2023/06/15 09:47:03;;;;;;;11.53;4.90;;;;;;;19.35;76.91;99599.75;5030763;28;20275;-55
2023/06/15 09:49:37;;;;;;;14.07;6.67;;;;;;;19.23;77.54;99616.41;5031310;28;20310;-58
2023/06/15 09:52:18;;;;;;;16.17;7.23;;;;;;;19.12;77.86;99618.88;5041456;28;20302;-58
2023/06/15 09:54:52;;;;;;;14.47;5.80;;;;;;;18.96;78.66;99619.81;5031105;28;20283;-59
2023/06/15 09:57:27;;;;;;;10.93;5.50;;;;;;;18.86;78.93;99629.28;5042035;28;20761;-59
2023/06/15 10:00:06;;;;;;;13.57;5.87;;;;;;;18.58;79.91;99608.03;5020317;28;20288;-57
2023/06/15 10:02:40;;;;;;;13.50;6.50;;;;;;;18.32;80.56;99597.19;5012191;28;20654;-56
2023/06/15 10:05:19;;;;;;;14.20;6.50;;;;;;;18.25;81.00;99615.22;5022342;28;20366;-58
2023/06/15 10:07:54;;;;;;;15.77;6.60;;;;;;;18.14;81.83;99630.84;5012284;28;20291;-58
2023/06/15 10:10:36;;;;;;;16.10;6.83;;;;;;;18.01;82.76;99645.72;5025621;28;20370;-57
2023/06/15 10:13:10;;;;;;;21.30;7.30;;;;;;;17.82;83.95;99654.72;5031641;28;20291;-55
2023/06/15 10:15:52;;;;;;;18.90;7.70;;;;;;;17.53;84.92;99639.59;5030336;28;20357;-57
2023/06/15 10:18:28;;;;;;;20.13;8.40;;;;;;;17.54;85.68;99655.31;5040705;28;20282;-57
2023/06/15 10:21:04;;;;;;;18.97;8.40;;;;;;;16.98;86.65;99585.34;5029714;28;20299;-58
2023/06/15 10:23:53;;;;;;;18.63;8.33;;;;;;;17.33;87.17;99651.25;5029823;28;20384;-57
2023/06/15 10:26:28;;;;;;;19.63;8.75;;;;;;;17.34;87.54;99672.25;5039375;28;20290;-57
2023/06/15 10:29:13;;;;;;;20.27;7.60;;;;;;;17.28;88.12;99671.75;5029648;28;20581;-56
2023/06/15 10:32:13;;;;;;;19.93;7.93;;;;;;;17.27;88.66;99691.16;5029885;28;20056;-59
2023/06/15 10:35:00;;;;;;;21.60;8.50;;;;;;;17.20;89.22;99686.22;5029221;28;20296;-59
2023/06/15 10:37:41;;;;;;;24.57;8.83;;;;;;;16.85;89.55;99637.03;5039629;28;20279;-59
2023/06/15 10:40:30;;;;;;;19.80;7.93;;;;;;;17.03;89.97;99678.31;5029842;28;20295;-60
2023/06/15 10:43:08;;;;;;;18.67;8.63;;;;;;;17.05;90.38;99679.09;5026920;28;20349;-58
2023/06/15 10:45:39;;;;;;;16.53;8.27;;;;;;;16.98;90.54;99685.63;5029889;28;20485;-58
2023/06/15 10:48:22;;;;;;;18.90;8.10;;;;;;;16.69;90.88;99653.63;5041460;28;20290;-57
2023/06/15 10:51:22;;;;;;;16.23;7.73;;;;;;;16.62;91.61;99668.06;5029698;28;20282;-59
2023/06/15 10:54:21;;;;;;;17.08;8.45;;;;;;;16.76;92.00;99702.53;5044956;28;20679;-59
2023/06/15 10:57:12;;;;;;;19.20;7.80;;;;;;;16.69;92.48;99706.41;5003834;28;20638;-58
2023/06/15 10:59:54;;;;;;;19.50;8.60;;;;;;;16.65;92.95;99720.69;5030311;28;20283;-58
2023/06/15 11:02:59;;;;;;;15.23;8.70;;;;;;;16.62;93.29;99739.28;5040338;28;20293;-58
2023/06/15 11:05:47;;;;;;;19.37;7.47;;;;;;;16.40;93.14;99723.69;4979120;28;20355;-57
2023/06/15 11:08:19;;;;;;;14.10;8.10;;;;;;;16.44;93.42;99748.97;4977478;28;20305;-60
2023/06/15 11:10:56;;;;;;;19.93;7.33;;;;;;;16.37;93.69;99753.69;4967678;28;20288;-57
2023/06/15 11:13:30;;;;;;;;;;;;;;;16.30;93.87;99761.94;4979483;28;20284;-59
2023/06/15 11:16:15;;;;;;;18.27;7.23;;;;;;;16.33;94.65;99757.41;4966195;28;19937;-59
2023/06/15 11:19:00;;;;;;;13.57;7.77;;;;;;;16.34;94.51;99756.47;4967995;28;20784;-59
2023/06/15 11:21:40;;;;;;;16.57;7.50;;;;;;;16.33;93.95;99767.94;4976688;28;20312;-58
2023/06/15 11:27:27;;;;;;;11.60;6.50;;;;;;;16.15;94.63;99758.28;4976311;28;20324;-58
2023/06/15 11:30:08;;;;;;;16.67;7.23;;;;;;;16.07;95.05;99770.97;4967778;28;21005;-58
2023/06/15 11:32:46;;;;;;;12.60;7.00;;;;;;;16.05;95.53;99778.06;4968688;28;20328;-58
2023/06/15 11:35:26;;;;;;;13.40;7.00;;;;;;;15.99;95.78;99773.94;4978665;28;20372;-59
2023/06/15 11:38:10;;;;;;;14.97;6.80;;;;;;;15.99;96.10;99781.00;4952386;28;20289;-60
2023/06/15 11:40:48;;;;;;;18.23;7.47;;;;;;;15.75;96.54;99744.34;5002186;28;20382;-60
2023/06/15 11:43:21;;;;;;;21.03;7.47;;;;;;;16.00;96.94;99780.06;5039401;28;20318;-59
2023/06/15 11:45:59;;;;;;;14.77;7.20;;;;;;;16.06;96.90;99790.34;5028662;28;20302;-60
2023/06/15 11:48:31;;;;;;;14.80;7.17;;;;;;;16.10;96.38;99781.34;5040187;28;20282;-60
2023/06/15 11:51:10;;;;;;;15.93;6.83;;;;;;;16.08;96.11;99767.41;5029265;28;20644;-59
2023/06/15 11:53:46;;;;;;;14.10;7.50;;;;;;;16.18;96.17;99781.88;5028893;28;20325;-59
2023/06/15 11:56:30;;;;;;;12.17;7.47;;;;;;;16.17;96.94;99778.38;5038300;28;20664;-58
2023/06/15 11:59:26;;;;;;;14.55;6.95;;;;;;;16.15;97.22;99771.47;5028338;28;20279;-60
2023/06/15 12:02:08;;;;;;;22.23;7.57;;;;;;;16.10;98.02;99781.34;5028957;28;20106;-58
2023/06/15 12:04:57;;;;;;;14.67;7.80;;;;;;;16.12;98.52;99776.88;5029715;28;20480;-60